createdAt,value
2022-07-30T00:00:31.250Z,61.80
2022-07-30T00:05:39.472Z,61.91
2022-07-30T00:10:47.584Z,62.00
2022-07-30T00:15:58.420Z,62.13
2022-07-30T00:21:06.529Z,62.36
2022-07-30T00:26:15.110Z,63.24
2022-07-30T00:31:23.442Z,63.77
2022-07-30T00:36:31.563Z,63.08
2022-07-30T00:41:57.221Z,63.15
2022-07-30T00:47:05.226Z,63.19
2022-07-30T00:52:13.362Z,63.74
2022-07-30T00:57:22.804Z,63.44
2022-07-30T01:02:31.099Z,63.07
2022-07-30T01:07:39.704Z,63.20
2022-07-30T01:12:49.443Z,63.11
2022-07-30T01:18:01.845Z,63.19
2022-07-30T01:23:15.387Z,63.26
2022-07-30T01:28:28.020Z,63.28
2022-07-30T01:33:40.917Z,63.43
2022-07-30T01:38:51.554Z,63.68
2022-07-30T01:44:00.958Z,63.94
2022-07-30T01:49:10.605Z,64.07
2022-07-30T01:54:23.895Z,64.23
2022-07-30T01:59:35.408Z,64.23
2022-07-30T02:04:44.950Z,64.12
2022-07-30T02:09:57.299Z,63.99
2022-07-30T02:15:17.773Z,63.71
2022-07-30T02:20:29.716Z,63.59
2022-07-30T02:25:45.193Z,63.61
2022-07-30T02:30:56.214Z,63.71
2022-07-30T02:36:07.806Z,63.71
2022-07-30T02:41:21.493Z,63.66
2022-07-30T02:46:30.528Z,63.74
2022-07-30T02:52:02.160Z,63.87
2022-07-30T02:57:11.501Z,64.00
2022-07-30T03:02:28.938Z,64.17
2022-07-30T03:07:40.866Z,64.53
2022-07-30T03:12:51.984Z,64.53
2022-07-30T03:18:01.758Z,64.85
2022-07-30T03:23:13.219Z,65.32
2022-07-30T03:28:23.151Z,65.70
2022-07-30T03:33:38.388Z,65.98
2022-07-30T03:38:49.116Z,66.25
2022-07-30T03:43:58.080Z,66.55
2022-07-30T03:49:07.605Z,66.80
2022-07-30T03:54:16.728Z,67.19
2022-07-30T03:59:59.680Z,67.38
2022-07-30T04:05:08.877Z,68.00
2022-07-30T04:10:17.696Z,68.35
2022-07-30T04:16:37.388Z,68.46
2022-07-30T04:21:29.639Z,68.69
2022-07-30T04:26:39.634Z,69.18
2022-07-30T04:31:48.037Z,69.39
2022-07-30T04:37:16.861Z,69.27
2022-07-30T04:42:25.633Z,69.47
2022-07-30T04:47:42.128Z,69.57
2022-07-30T04:53:07.762Z,69.75
2022-07-30T04:58:20.649Z,70.17
2022-07-30T05:03:29.378Z,70.33
2022-07-30T05:08:38.189Z,70.46
2022-07-30T05:13:50.349Z,70.32
2022-07-30T05:19:01.828Z,70.09
2022-07-30T05:24:17.585Z,69.83
2022-07-30T05:29:34.725Z,69.42
2022-07-30T05:34:51.781Z,68.92
2022-07-30T05:40:02.596Z,68.38
2022-07-30T05:45:40.916Z,67.78
2022-07-30T05:50:48.987Z,67.09
2022-07-30T05:55:57.535Z,66.34
2022-07-30T06:01:39.529Z,65.76
2022-07-30T06:06:53.538Z,64.95
2022-07-30T06:12:01.828Z,64.01
2022-07-30T06:17:10.343Z,63.11
2022-07-30T06:22:38.878Z,62.23
2022-07-30T06:27:50.558Z,61.44
2022-07-30T06:32:58.842Z,60.64
2022-07-30T06:38:08.049Z,60.03
2022-07-30T06:43:26.476Z,59.49
2022-07-30T06:48:53.712Z,59.24
2022-07-30T06:54:02.399Z,58.77
2022-07-30T06:59:18.452Z,58.38
2022-07-30T07:04:52.510Z,57.99
2022-07-30T07:10:00.550Z,57.46
2022-07-30T07:15:38.664Z,57.25
2022-07-30T07:20:50.097Z,56.75
2022-07-30T07:25:59.545Z,56.40
2022-07-30T07:31:08.623Z,55.80
2022-07-30T07:36:17.741Z,55.37
2022-07-30T07:41:26.611Z,55.38
2022-07-30T07:46:35.791Z,55.52
2022-07-30T07:51:48.386Z,55.32
2022-07-30T07:57:01.468Z,54.68
2022-07-30T08:02:18.660Z,54.04
2022-07-30T08:07:33.375Z,53.19
2022-07-30T08:12:58.040Z,52.36
2022-07-30T08:18:25.374Z,51.53
2022-07-30T08:23:53.233Z,50.62
2022-07-30T08:29:02.035Z,49.66
2022-07-30T08:34:10.373Z,49.26
2022-07-30T08:39:19.710Z,48.77
2022-07-30T08:44:28.168Z,48.64
2022-07-30T08:49:38.367Z,48.15
2022-07-30T08:54:48.163Z,47.81
2022-07-30T09:00:01.335Z,47.80
2022-07-30T09:05:12.178Z,47.60
2022-07-30T09:10:20.256Z,47.47
2022-07-30T09:15:28.837Z,47.29
2022-07-30T09:20:38.510Z,47.01
2022-07-30T09:25:52.331Z,46.79
2022-07-30T09:31:20.066Z,46.44
2022-07-30T09:36:46.359Z,46.32
2022-07-30T09:42:04.949Z,46.22
2022-07-30T09:47:31.811Z,46.14
2022-07-30T09:52:44.268Z,46.32
2022-07-30T09:58:01.614Z,46.13
2022-07-30T10:03:33.945Z,46.06
2022-07-30T10:09:14.246Z,46.31
2022-07-30T10:14:35.387Z,46.05
2022-07-30T10:19:54.969Z,45.92
2022-07-30T10:25:27.809Z,45.71
2022-07-30T10:31:47.019Z,45.60
2022-07-30T10:36:35.767Z,45.70
2022-07-30T10:41:59.622Z,45.60
2022-07-30T10:47:10.613Z,45.39
2022-07-30T10:52:39.840Z,45.10
2022-07-30T10:58:02.330Z,45.15
2022-07-30T11:03:38.778Z,44.88
2022-07-30T11:08:57.299Z,45.00
2022-07-30T11:14:05.963Z,44.79
2022-07-30T11:19:51.933Z,44.21
2022-07-30T11:24:49.987Z,44.21
2022-07-30T11:29:58.209Z,43.88
2022-07-30T11:35:23.798Z,43.79
2022-07-30T11:40:33.595Z,43.77
2022-07-30T11:45:43.460Z,43.74
2022-07-30T11:50:52.491Z,43.66
2022-07-30T11:56:02.702Z,43.51
2022-07-30T12:01:17.167Z,43.16
2022-07-30T12:06:26.204Z,42.96
2022-07-30T12:11:38.278Z,42.78
2022-07-30T12:16:53.270Z,42.58
2022-07-30T12:22:04.986Z,42.52
2022-07-30T12:27:14.003Z,42.46
2022-07-30T12:32:23.373Z,42.37
2022-07-30T12:37:32.031Z,42.39
2022-07-30T12:42:51.593Z,42.30
2022-07-30T12:48:00.149Z,42.37
2022-07-30T12:53:10.249Z,42.19
2022-07-30T12:58:18.373Z,42.18
2022-07-30T13:03:29.847Z,42.25
2022-07-30T13:08:55.880Z,42.12
2022-07-30T13:14:04.903Z,42.13
2022-07-30T13:19:13.783Z,41.96
2022-07-30T13:24:22.874Z,41.85
2022-07-30T13:29:31.305Z,41.73
2022-07-30T13:34:40.372Z,41.90
2022-07-30T13:39:48.978Z,42.04
2022-07-30T13:44:57.566Z,42.05
2022-07-30T13:50:06.775Z,42.09
2022-07-30T13:55:15.340Z,42.10
2022-07-30T14:00:25.004Z,41.92
2022-07-30T14:05:33.974Z,41.78
2022-07-30T14:10:42.213Z,41.74
2022-07-30T14:15:50.985Z,41.53
2022-07-30T14:20:59.602Z,41.30
2022-07-30T14:26:07.518Z,41.22
2022-07-30T14:31:15.240Z,41.44
2022-07-30T14:36:22.942Z,41.69
2022-07-30T14:41:30.774Z,41.87
2022-07-30T14:46:38.462Z,41.73
2022-07-30T14:52:01.330Z,41.68
2022-07-30T14:57:10.699Z,41.88
2022-07-30T15:02:18.425Z,42.76
2022-07-30T15:07:26.186Z,42.89
2022-07-30T15:12:34.650Z,43.02
2022-07-30T15:17:46.197Z,43.04
2022-07-30T15:22:53.787Z,43.04
2022-07-30T15:28:01.291Z,42.88
2022-07-30T15:33:08.944Z,42.88
2022-07-30T15:38:16.620Z,42.96
2022-07-30T15:43:24.748Z,42.93
2022-07-30T15:48:32.503Z,43.01
2022-07-30T15:53:40.876Z,42.97
2022-07-30T15:58:48.441Z,42.83
2022-07-30T16:03:56.903Z,42.83
2022-07-30T16:09:05.860Z,42.80
2022-07-30T16:14:13.527Z,42.69
2022-07-30T16:19:20.954Z,42.73
2022-07-30T16:24:28.454Z,42.87
2022-07-30T16:29:35.899Z,42.99
2022-07-30T16:34:43.454Z,43.01
2022-07-30T16:39:52.530Z,43.10
2022-07-30T16:45:00.321Z,43.21
2022-07-30T16:50:09.372Z,43.32
2022-07-30T16:55:17.609Z,43.37
2022-07-30T17:00:25.088Z,43.46
2022-07-30T17:05:32.835Z,43.67
2022-07-30T17:10:40.954Z,43.82
2022-07-30T17:15:49.125Z,43.84
2022-07-30T17:20:56.944Z,43.86
2022-07-30T17:26:04.673Z,43.93
2022-07-30T17:31:13.195Z,44.05
2022-07-30T17:36:20.697Z,44.15
2022-07-30T17:41:28.538Z,44.33
2022-07-30T17:46:36.089Z,44.50
2022-07-30T17:51:43.928Z,44.64
2022-07-30T17:56:51.739Z,44.82
2022-07-30T18:02:00.503Z,44.97
2022-07-30T18:07:08.143Z,45.16
2022-07-30T18:12:16.200Z,45.34
2022-07-30T18:17:25.023Z,45.50
2022-07-30T18:22:32.869Z,45.69
2022-07-30T18:27:40.359Z,45.88
2022-07-30T18:32:48.646Z,46.05
2022-07-30T18:37:55.978Z,46.27
2022-07-30T18:43:04.330Z,46.47
2022-07-30T18:48:11.959Z,46.71
2022-07-30T18:53:20.232Z,46.90
2022-07-30T18:58:28.006Z,47.08
2022-07-30T19:03:36.302Z,47.29
2022-07-30T19:08:43.985Z,47.48
2022-07-30T19:13:52.376Z,47.62
2022-07-30T19:19:00.093Z,47.77
2022-07-30T19:24:09.957Z,47.88
2022-07-30T19:29:18.289Z,48.00
2022-07-30T19:34:26.403Z,48.12
2022-07-30T19:39:35.222Z,48.19
2022-07-30T19:44:42.991Z,48.24
2022-07-30T19:49:51.182Z,48.31
2022-07-30T19:55:01.349Z,48.39
2022-07-30T20:00:14.126Z,48.47
2022-07-30T20:05:54.832Z,48.56
2022-07-30T20:11:01.949Z,48.67
2022-07-30T20:16:12.749Z,48.88
2022-07-30T20:21:20.873Z,49.05
2022-07-30T20:26:48.513Z,49.20
2022-07-30T20:31:59.873Z,49.36
2022-07-30T20:37:16.641Z,49.47
2022-07-30T20:42:31.249Z,49.56
2022-07-30T20:47:38.999Z,49.67
2022-07-30T20:52:48.953Z,49.77
2022-07-30T21:03:25.249Z,49.90
2022-07-30T21:08:37.842Z,50.00
2022-07-30T21:13:45.906Z,50.04
2022-07-30T21:18:55.266Z,50.04
2022-07-30T21:24:04.667Z,50.08
2022-07-30T21:29:12.423Z,50.07
2022-07-30T21:34:19.893Z,50.07
2022-07-30T21:39:40.049Z,50.05
2022-07-30T21:44:48.801Z,50.06
2022-07-30T21:49:57.333Z,50.07
2022-07-30T21:55:07.230Z,50.07
2022-07-30T22:00:22.568Z,50.07
2022-07-30T22:05:38.358Z,50.02
2022-07-30T22:10:49.058Z,49.97
2022-07-30T22:15:59.545Z,49.96
2022-07-30T22:21:07.647Z,49.91
2022-07-30T22:26:15.214Z,49.87
2022-07-30T22:31:23.817Z,49.87
2022-07-30T22:36:38.533Z,49.83
2022-07-30T22:41:46.393Z,49.82
2022-07-30T22:46:56.239Z,49.79
2022-07-30T22:52:23.861Z,49.80
2022-07-30T22:57:37.703Z,49.77
2022-07-30T23:02:47.476Z,49.73
2022-07-30T23:07:55.800Z,49.70
2022-07-30T23:12:31.725Z,49.86
2022-07-30T23:13:03.179Z,49.64
2022-07-30T23:18:11.483Z,49.61
2022-07-30T23:23:18.794Z,49.67
2022-07-30T23:28:27.293Z,49.68
2022-07-30T23:33:34.841Z,49.68
2022-07-30T23:38:42.512Z,49.68
2022-07-30T23:43:51.856Z,49.76
2022-07-30T23:48:59.760Z,49.80
2022-07-30T23:54:07.711Z,49.99
2022-07-30T23:59:15.693Z,50.11
